Time;durP1;ratioP1;P1;durP2;ratioP2;P2;SDS_P1;SDS_P2;PMS_P1;PMS_P2;Temp;Humidity;BMP_temperature;BMP_pressure;BME280_temperature;BME280_humidity;BME280_pressure;Samples;Min_cycle;Max_cycle;Signal;HPM_P1;HPM_P2
2021/04/25 00:00:20;;;;;;;20.52;11.55;;;;;;;6.58;49.28;100953.36;122757;1149;22617;-75
2021/04/25 00:03:09;;;;;;;19.95;12.60;;;;;;;6.52;49.26;100951.24;122744;1148;23169;-75
2021/04/25 00:05:37;;;;;;;19.73;11.87;;;;;;;6.51;49.11;100950.41;122765;1148;22567;-74
2021/04/25 00:08:07;;;;;;;18.63;12.33;;;;;;;6.50;49.40;100955.80;122708;1148;22532;-74
2021/04/25 00:10:36;;;;;;;21.10;13.25;;;;;;;6.48;49.18;100955.09;122452;1150;24680;-74
2021/04/25 00:13:04;;;;;;;22.35;13.88;;;;;;;6.45;49.11;100945.66;122365;1151;25140;-74
2021/04/25 00:15:32;;;;;;;24.83;13.20;;;;;;;6.43;49.21;100947.61;122430;1151;25263;-73
2021/04/25 00:18:01;;;;;;;21.48;12.38;;;;;;;6.41;49.33;100949.52;122430;1151;24439;-78
2021/04/25 00:20:30;;;;;;;16.70;11.28;;;;;;;6.41;49.15;100946.89;122133;1153;22586;-76
2021/04/25 00:22:59;;;;;;;21.88;12.43;;;;;;;6.38;49.40;100944.52;122156;1154;22603;-73
2021/04/25 00:25:28;;;;;;;19.50;11.10;;;;;;;6.37;49.28;100945.48;122100;1153;22648;-72
2021/04/25 00:27:56;;;;;;;16.80;10.53;;;;;;;6.36;49.58;100943.79;122074;1152;22582;-73
2021/04/25 00:30:24;;;;;;;17.97;10.87;;;;;;;6.33;49.38;100938.80;122121;1152;22608;-73
2021/04/25 00:32:53;;;;;;;15.75;9.38;;;;;;;6.32;49.34;100932.72;122045;1152;22608;-73
2021/04/25 00:35:22;;;;;;;15.20;9.38;;;;;;;6.30;49.40;100936.45;121723;1155;22578;-74
2021/04/25 00:37:50;;;;;;;15.95;10.55;;;;;;;6.29;49.00;100938.22;122181;1153;22569;-73
2021/04/25 00:40:19;;;;;;;16.03;11.00;;;;;;;6.28;49.29;100941.80;122333;1152;22569;-73
2021/04/25 00:42:49;;;;;;;19.35;12.50;;;;;;;6.24;49.17;100942.20;122327;1152;22557;-75
2021/04/25 00:45:19;;;;;;;22.08;13.93;;;;;;;6.21;49.19;100930.16;122385;1152;22551;-73
2021/04/25 00:47:50;;;;;;;21.48;12.18;;;;;;;6.20;49.18;100935.50;122350;1152;24789;-73
2021/04/25 00:50:24;;;;;;;22.25;11.08;;;;;;;6.18;49.14;100938.27;122409;1152;22548;-75
2021/04/25 00:52:58;;;;;;;16.55;9.28;;;;;;;6.15;48.75;100929.81;122417;1148;24179;-74
2021/04/25 00:55:30;;;;;;;16.58;9.10;;;;;;;6.13;49.09;100932.55;122748;1148;25642;-74
2021/04/25 00:58:01;;;;;;;16.98;9.10;;;;;;;6.11;49.01;100929.23;122768;1149;22572;-74
2021/04/25 01:00:32;;;;;;;16.98;9.65;;;;;;;6.08;48.84;100926.86;122795;1148;22571;-73
2021/04/25 01:03:02;;;;;;;16.43;8.48;;;;;;;6.05;48.99;100922.69;122420;1152;23333;-73
2021/04/25 01:05:30;;;;;;;14.38;7.80;;;;;;;6.02;48.83;100922.94;122371;1150;22997;-74
2021/04/25 01:07:59;;;;;;;12.83;7.43;;;;;;;6.00;48.87;100924.87;122053;1155;22561;-74
2021/04/25 01:10:28;;;;;;;18.65;8.30;;;;;;;5.99;48.83;100917.11;121989;1154;22584;-74
2021/04/25 01:12:59;;;;;;;14.90;7.25;;;;;;;5.99;48.26;100917.11;122048;1153;22579;-73
2021/04/25 01:15:28;;;;;;;15.13;8.60;;;;;;;5.96;48.90;100915.56;122024;1155;22572;-73
2021/04/25 01:17:57;;;;;;;16.33;7.73;;;;;;;5.95;48.52;100924.39;122091;1153;22577;-73
2021/04/25 01:20:26;;;;;;;12.90;6.40;;;;;;;5.90;48.54;100922.13;121694;1155;22590;-74
2021/04/25 01:22:55;;;;;;;13.08;7.38;;;;;;;5.89;48.40;100922.23;121649;1157;22587;-73
2021/04/25 01:25:26;;;;;;;12.15;6.53;;;;;;;5.86;48.43;100919.84;121654;1154;22656;-74
2021/04/25 01:27:55;;;;;;;13.57;7.10;;;;;;;5.84;47.92;100909.50;122265;1149;22543;-74
2021/04/25 01:30:30;;;;;;;13.13;7.28;;;;;;;5.83;48.29;100912.23;122349;1150;22533;-74
2021/04/25 01:32:59;;;;;;;12.55;7.20;;;;;;;5.82;48.21;100910.57;122213;1153;23143;-73
2021/04/25 01:35:28;;;;;;;15.58;6.70;;;;;;;5.80;48.13;100910.70;122301;1152;22547;-73
2021/04/25 01:37:57;;;;;;;17.38;9.00;;;;;;;5.81;47.95;100906.30;122050;1154;24558;-73
2021/04/25 01:40:29;;;;;;;15.83;7.90;;;;;;;5.81;47.95;100911.53;122098;1154;22551;-74
2021/04/25 01:43:00;;;;;;;12.07;7.13;;;;;;;5.80;47.94;100900.22;122062;1153;22588;-75
2021/04/25 01:45:30;;;;;;;12.93;7.30;;;;;;;5.79;47.72;100905.57;122289;1152;22538;-74
2021/04/25 01:48:04;;;;;;;11.37;6.10;;;;;;;5.79;47.51;100898.53;122484;1152;23008;-75
2021/04/25 01:50:33;;;;;;;11.83;6.43;;;;;;;5.81;47.76;100904.50;122416;1151;23411;-75
2021/04/25 01:53:06;;;;;;;12.43;5.75;;;;;;;5.83;47.28;100904.36;122398;1152;22851;-74
2021/04/25 01:55:36;;;;;;;12.95;5.85;;;;;;;5.81;47.04;100896.63;122497;1149;22680;-75
2021/04/25 01:58:06;;;;;;;7.25;5.50;;;;;;;5.79;46.98;100902.95;122628;1148;22891;-75
2021/04/25 02:00:40;;;;;;;9.40;5.88;;;;;;;5.78;47.02;100901.30;122783;1150;24744;-75
2021/04/25 02:03:11;;;;;;;11.40;6.23;;;;;;;5.79;46.97;100903.78;122706;1151;22515;-74
2021/04/25 02:05:41;;;;;;;8.68;5.70;;;;;;;5.79;47.04;100902.95;122748;1148;22525;-72
2021/04/25 02:08:11;;;;;;;7.03;5.38;;;;;;;5.80;47.05;100899.39;122707;1149;24468;-75
2021/04/25 02:10:41;;;;;;;8.05;5.90;;;;;;;5.81;47.12;100903.67;122801;1147;22613;-73
2021/04/25 02:13:11;;;;;;;8.85;5.68;;;;;;;5.81;46.94;100893.19;122717;1148;22868;-74
2021/04/25 02:15:40;;;;;;;8.83;6.35;;;;;;;5.80;46.48;100897.59;122761;1149;22610;-74
2021/04/25 02:18:08;;;;;;;10.70;5.55;;;;;;;5.79;46.66;100893.29;122717;1148;22532;-74
2021/04/25 02:20:37;;;;;;;8.35;6.18;;;;;;;5.80;46.49;100891.53;122705;1147;22527;-74
2021/04/25 05:30:43;;;;;;;5.08;2.60;;;;;;;7.83;45.26;100896.22;122499;1145;25250;-76
2021/04/25 05:33:14;;;;;;;5.17;2.40;;;;;;;8.24;44.46;100892.52;122266;1152;22531;-76
2021/04/25 05:35:43;;;;;;;5.03;2.95;;;;;;;8.64;43.70;100896.79;122417;1152;23698;-76
2021/04/25 05:38:12;;;;;;;4.50;2.13;;;;;;;9.07;43.19;100893.61;122170;1152;22530;-78
2021/04/25 05:40:42;;;;;;;5.33;2.48;;;;;;;9.46;42.33;100890.78;121719;1155;22611;-75
2021/04/25 05:43:10;;;;;;;4.75;2.20;;;;;;;9.76;41.37;100894.89;121757;1155;23440;-75
2021/04/25 05:45:40;;;;;;;6.13;2.23;;;;;;;9.99;40.62;100894.47;121711;1155;23146;-76
2021/04/25 05:48:09;;;;;;;4.83;2.20;;;;;;;10.25;40.18;100898.00;121809;1155;22867;-76
2021/04/25 05:50:38;;;;;;;5.95;4.58;;;;;;;10.47;39.73;100891.45;121762;1155;22645;-76
2021/04/25 05:53:07;;;;;;;5.63;2.83;;;;;;;10.87;39.43;100905.11;121659;1155;23181;-77
2021/04/25 05:55:35;;;;;;;4.70;2.45;;;;;;;11.12;38.02;100895.48;121647;1155;24793;-76
2021/04/25 05:58:03;;;;;;;4.68;2.40;;;;;;;11.27;37.35;100905.31;121785;1155;22545;-76
2021/04/25 06:00:33;;;;;;;3.50;1.60;;;;;;;11.44;36.94;100897.44;121754;1155;22546;-78
2021/04/25 06:03:01;;;;;;;6.38;1.65;;;;;;;11.70;36.67;100889.42;121625;1155;22554;-78
2021/04/25 06:05:33;;;;;;;4.35;1.80;;;;;;;11.84;36.08;100895.90;122027;1153;22708;-76
2021/04/25 06:08:03;;;;;;;4.85;2.13;;;;;;;12.11;36.22;100898.27;122107;1154;22541;-75
2021/04/25 06:10:31;;;;;;;3.98;2.00;;;;;;;12.29;35.34;100902.58;122107;1155;22543;-75
2021/04/25 06:12:59;;;;;;;5.55;2.50;;;;;;;12.56;35.50;100896.11;122337;1152;23392;-75
2021/04/25 06:15:28;;;;;;;7.60;3.63;;;;;;;12.87;34.63;100907.67;122194;1152;22608;-75
2021/04/25 06:18:00;;;;;;;4.13;2.50;;;;;;;12.94;33.69;100903.34;122117;1155;22541;-76
2021/04/25 06:20:31;;;;;;;5.50;2.35;;;;;;;13.04;33.64;100894.38;122132;1153;22630;-76
2021/04/25 06:23:00;;;;;;;6.13;3.25;;;;;;;13.19;33.36;100912.07;122210;1152;25224;-77
2021/04/25 06:25:28;;;;;;;8.63;3.87;;;;;;;13.29;32.46;100897.78;122173;1153;22547;-77
2021/04/25 06:27:56;;;;;;;5.20;2.78;;;;;;;13.42;32.85;100901.53;122286;1152;22555;-77
2021/04/25 06:30:25;;;;;;;5.50;3.05;;;;;;;13.57;32.31;100900.83;122418;1155;22549;-76
2021/04/25 06:32:53;;;;;;;4.23;2.08;;;;;;;13.49;31.43;100899.02;122210;1152;22529;-76
2021/04/25 06:35:23;;;;;;;4.03;2.35;;;;;;;13.31;30.84;100895.80;122242;1152;22537;-76
2021/04/25 06:37:51;;;;;;;5.28;2.28;;;;;;;13.24;31.23;100895.66;122179;1152;22540;-77
2021/04/25 06:40:20;;;;;;;3.58;2.03;;;;;;;13.38;31.56;100902.06;122190;1151;23585;-76
2021/04/25 06:42:48;;;;;;;5.83;2.23;;;;;;;13.50;30.87;100895.38;122230;1152;24694;-76
2021/04/25 06:45:21;;;;;;;4.78;2.20;;;;;;;13.46;30.46;100899.36;122216;1151;22605;-76
2021/04/25 06:47:51;;;;;;;3.98;2.83;;;;;;;13.49;30.59;100903.50;122442;1152;23412;-77
2021/04/25 06:50:19;;;;;;;3.68;1.98;;;;;;;13.56;29.72;100905.31;122231;1152;22523;-76
2021/04/25 06:52:50;;;;;;;3.18;1.30;;;;;;;13.68;29.67;100908.39;122284;1152;23801;-76
2021/04/25 06:55:22;;;;;;;6.00;3.75;;;;;;;13.82;29.80;100904.98;122256;1152;22592;-78
2021/04/25 06:57:52;;;;;;;3.25;1.70;;;;;;;14.19;29.66;100908.70;122225;1152;22523;-80
2021/04/25 07:00:24;;;;;;;5.83;1.50;;;;;;;14.45;29.77;100910.99;122136;1155;24693;-78
2021/04/25 07:02:57;;;;;;;3.15;1.88;;;;;;;14.66;28.86;100915.68;122132;1157;24452;-80
2021/04/25 07:05:26;;;;;;;3.27;1.30;;;;;;;14.67;28.53;100905.87;121754;1155;22621;-79
2021/04/25 07:07:56;;;;;;;3.43;1.10;;;;;;;14.80;28.47;100909.55;122108;1155;22563;-79
2021/04/25 07:10:28;;;;;;;2.35;1.03;;;;;;;15.07;27.97;100912.59;121806;1155;22560;-78
2021/04/25 07:12:57;;;;;;;6.50;3.73;;;;;;;15.37;27.40;100916.06;121811;1157;24927;-78
2021/04/25 07:15:25;;;;;;;5.88;3.03;;;;;;;15.42;26.64;100908.33;122025;1155;23502;-78
2021/04/25 07:17:55;;;;;;;2.25;1.25;;;;;;;15.44;26.93;100905.50;122046;1155;22593;-77
2021/04/25 07:20:25;;;;;;;2.73;1.50;;;;;;;15.62;26.48;100905.91;122122;1155;24079;-78
2021/04/25 07:22:54;;;;;;;5.30;1.33;;;;;;;15.64;25.80;100911.06;121585;1156;25153;-78
2021/04/25 07:25:22;;;;;;;3.87;0.97;;;;;;;15.76;26.40;100909.58;121669;1155;22567;-78
2021/04/25 07:27:51;;;;;;;3.58;1.80;;;;;;;15.96;25.52;100913.30;121773;1158;23050;-77
2021/04/25 07:30:20;;;;;;;2.47;1.50;;;;;;;16.07;25.22;100905.81;122095;1155;22554;-77
2021/04/25 07:45:55;;;;;;;3.53;1.73;;;;;;;16.19;26.24;100904.27;122186;1151;22642;-76
2021/04/25 07:48:24;;;;;;;3.85;2.58;;;;;;;16.33;25.39;100899.91;122063;1155;22556;-74
2021/04/25 07:50:52;;;;;;;5.78;1.58;;;;;;;16.39;25.56;100902.63;122012;1153;22550;-73
2021/04/25 07:53:21;;;;;;;3.57;1.37;;;;;;;16.57;25.28;100904.00;122032;1153;22546;-72
2021/04/25 07:55:49;;;;;;;4.28;1.30;;;;;;;16.65;24.80;100912.66;122042;1155;22929;-73
2021/04/25 07:58:18;;;;;;;5.03;2.95;;;;;;;16.67;24.20;100902.63;122066;1155;24442;-74
2021/04/25 08:00:46;;;;;;;4.83;1.80;;;;;;;16.83;23.90;100890.06;122047;1155;22552;-74
2021/04/25 08:03:14;;;;;;;4.50;2.40;;;;;;;16.85;23.65;100906.67;122040;1155;24763;-74
2021/04/25 08:05:43;;;;;;;2.63;1.10;;;;;;;16.80;23.23;100907.27;122148;1155;22537;-73
2021/04/25 08:08:11;;;;;;;3.68;1.23;;;;;;;16.86;23.15;100903.83;122176;1153;22560;-73
2021/04/25 08:10:41;;;;;;;3.30;1.10;;;;;;;16.73;22.53;100906.38;122090;1155;24705;-73
2021/04/25 08:13:10;;;;;;;2.28;0.93;;;;;;;16.76;22.74;100903.36;122002;1154;22550;-73
2021/04/25 08:15:39;;;;;;;2.50;1.30;;;;;;;16.91;22.22;100913.91;122070;1153;22541;-73
2021/04/25 08:18:07;;;;;;;4.00;1.40;;;;;;;17.07;21.94;100908.27;122155;1153;22548;-72
2021/04/25 08:20:35;;;;;;;6.18;1.65;;;;;;;17.15;21.94;100899.25;122062;1155;22538;-73
2021/04/25 08:23:04;;;;;;;2.13;1.28;;;;;;;17.14;22.04;100903.78;122159;1155;22536;-73
2021/04/25 08:25:33;;;;;;;6.25;1.43;;;;;;;17.35;22.08;100905.52;121572;1155;22633;-73
2021/04/25 08:28:01;;;;;;;3.75;1.60;;;;;;;17.59;21.58;100903.34;121497;1158;22598;-73
2021/04/25 08:30:29;;;;;;;5.65;1.88;;;;;;;17.76;21.25;100901.13;121583;1158;22606;-73
2021/04/25 08:32:59;;;;;;;4.77;1.10;;;;;;;17.74;21.31;100906.69;121519;1155;22626;-73
2021/04/25 08:35:27;;;;;;;2.50;1.30;;;;;;;17.55;21.19;100902.92;121646;1155;24188;-72
2021/04/25 08:37:56;;;;;;;2.08;1.20;;;;;;;17.49;21.26;100897.55;121673;1155;24696;-73
2021/04/25 08:40:24;;;;;;;2.70;1.20;;;;;;;17.52;21.96;100900.65;121649;1155;22543;-74
2021/04/25 08:42:53;;;;;;;16.90;5.38;;;;;;;17.59;21.30;100900.67;121621;1155;22552;-73
2021/04/25 08:45:22;;;;;;;11.65;6.25;;;;;;;17.83;21.31;100907.38;121783;1155;22552;-73
2021/04/25 08:47:50;;;;;;;4.48;1.83;;;;;;;17.75;21.20;100905.66;121454;1159;23022;-73
2021/04/25 08:50:19;;;;;;;5.10;2.25;;;;;;;17.82;21.16;100895.84;121523;1155;22604;-73
2021/04/25 08:52:49;;;;;;;4.38;1.68;;;;;;;17.76;20.95;100896.67;121551;1158;24787;-73
2021/04/25 08:55:17;;;;;;;4.50;1.50;;;;;;;17.69;20.98;100900.30;121548;1156;22562;-72
2021/04/25 08:57:48;;;;;;;5.70;3.25;;;;;;;17.72;20.77;100900.72;121497;1155;22614;-74
2021/04/25 09:00:18;;;;;;;8.07;3.07;;;;;;;17.75;21.08;100894.15;121632;1155;22556;-75
2021/04/25 09:02:48;;;;;;;8.83;2.80;;;;;;;17.84;21.13;100904.48;121672;1158;22701;-74
2021/04/25 09:05:16;;;;;;;4.25;2.68;;;;;;;17.93;21.01;100896.30;121549;1155;23162;-74
2021/04/25 09:08:03;;;;;;;3.43;1.60;;;;;;;18.17;20.94;100895.70;121622;1155;22559;-75
2021/04/25 09:10:37;;;;;;;3.53;2.40;;;;;;;18.27;20.91;100893.45;121566;1155;22607;-73
2021/04/25 09:13:22;;;;;;;3.37;2.23;;;;;;;18.32;20.46;100896.31;121929;1153;22543;-74
2021/04/25 09:15:55;;;;;;;5.73;2.33;;;;;;;18.04;20.24;100888.48;122073;1153;22585;-74
2021/04/25 09:18:35;;;;;;;4.68;2.85;;;;;;;18.11;20.52;100883.97;122003;1153;22545;-73
2021/04/25 09:21:11;;;;;;;3.95;1.68;;;;;;;18.32;20.61;100885.62;122013;1153;22642;-72
2021/04/25 09:23:40;;;;;;;4.48;3.20;;;;;;;18.44;20.66;100882.34;122206;1153;24383;-73
2021/04/25 09:26:10;;;;;;;3.93;2.13;;;;;;;18.28;20.34;100879.03;122036;1154;22556;-73
2021/04/25 09:28:41;;;;;;;2.95;1.68;;;;;;;18.33;20.80;100884.61;122101;1155;22551;-73
2021/04/25 09:31:16;;;;;;;2.63;1.35;;;;;;;18.33;20.66;100886.46;122237;1153;22550;-74
2021/04/25 09:33:58;;;;;;;3.63;1.30;;;;;;;18.25;20.20;100878.63;121775;1153;22556;-73
2021/04/25 09:36:29;;;;;;;;;;;;;;;17.84;19.84;100883.11;122019;1155;22551;-73
2021/04/25 09:39:19;;;;;;;6.03;3.60;;;;;;;17.76;21.40;100874.41;122177;1153;23064;-74
2021/04/25 09:41:49;;;;;;;4.23;2.23;;;;;;;18.15;21.27;100875.53;122108;1153;22549;-74
2021/04/25 09:44:37;;;;;;;4.23;1.35;;;;;;;17.92;20.63;100884.76;122025;1155;23418;-74
2021/04/25 09:47:06;;;;;;;5.08;1.88;;;;;;;17.84;21.13;100879.62;122019;1155;22547;-76
2021/04/25 09:49:48;;;;;;;3.10;1.73;;;;;;;18.02;20.96;100874.48;121726;1155;22738;-77
2021/04/25 09:52:37;;;;;;;3.83;1.60;;;;;;;17.96;20.43;100879.83;122084;1155;22650;-75
2021/04/25 09:55:36;;;;;;;4.68;1.50;;;;;;;17.45;19.96;100874.95;122151;1153;23644;-76
2021/04/25 09:58:11;;;;;;;4.43;2.15;;;;;;;16.82;20.30;100880.38;122036;1155;22560;-76
2021/04/25 10:00:47;;;;;;;5.60;2.43;;;;;;;16.41;20.41;100878.42;121537;1156;22946;-76
2021/04/25 10:03:19;;;;;;;3.83;1.50;;;;;;;16.40;20.80;100874.95;121641;1155;22723;-76
2021/04/25 10:06:05;;;;;;;4.08;1.90;;;;;;;16.63;20.46;100874.70;121561;1158;25311;-76
2021/04/25 10:08:38;;;;;;;3.48;2.25;;;;;;;16.23;20.43;100858.41;121667;1156;22932;-76
2021/04/25 10:11:08;;;;;;;6.18;1.90;;;;;;;15.74;20.32;100874.33;121791;1156;22673;-75
2021/04/25 10:13:47;;;;;;;2.33;1.55;;;;;;;15.27;20.54;100868.44;121584;1158;24715;-75
2021/04/25 10:16:19;;;;;;;3.75;1.48;;;;;;;14.81;21.07;100865.16;121784;1158;22538;-75
2021/04/25 10:18:49;;;;;;;2.23;1.03;;;;;;;14.62;21.65;100873.66;121758;1155;22648;-75
2021/04/25 10:21:18;;;;;;;4.68;1.48;;;;;;;14.96;21.95;100865.14;122108;1153;25192;-76
2021/04/25 10:23:47;;;;;;;4.83;1.73;;;;;;;15.11;21.35;100859.83;122119;1155;22769;-76
2021/04/25 10:26:19;;;;;;;5.13;1.20;;;;;;;15.52;20.55;100870.77;122044;1153;22525;-76
2021/04/25 10:28:56;;;;;;;1.83;0.90;;;;;;;15.76;20.26;100864.29;122146;1153;22701;-76
2021/04/25 10:31:31;;;;;;;4.78;1.68;;;;;;;15.84;20.48;100866.84;121664;1158;22642;-77
2021/04/25 10:34:07;;;;;;;3.40;1.78;;;;;;;15.72;20.30;100853.19;121602;1155;22555;-75
2021/04/25 10:37:07;;;;;;;2.95;1.63;;;;;;;15.45;20.23;100864.55;121556;1158;24843;-76
2021/04/25 10:39:52;;;;;;;6.87;4.13;;;;;;;15.04;20.90;100868.55;121610;1158;22567;-75
2021/04/25 10:42:21;;;;;;;6.23;3.70;;;;;;;14.75;20.87;100865.88;121608;1157;22563;-79
2021/04/25 10:47:33;;;;;;;10.63;3.30;;;;;;;13.85;20.97;100878.06;121623;1157;22579;-77
2021/04/25 10:50:17;;;;;;;4.20;2.65;;;;;;;13.46;21.34;100878.13;121767;1155;22555;-79
2021/04/25 10:52:50;;;;;;;15.03;4.65;;;;;;;13.01;22.21;100862.89;122111;1155;22549;-79
2021/04/25 10:55:22;;;;;;;16.20;3.18;;;;;;;12.62;22.70;100875.06;121788;1155;22554;-77
2021/04/25 10:58:01;;;;;;;8.08;2.45;;;;;;;12.51;23.19;100878.08;122070;1155;22549;-77
2021/04/25 11:03:19;;;;;;;9.85;2.13;;;;;;;12.22;24.32;100894.47;122015;1155;22653;-73
2021/04/25 11:05:54;;;;;;;4.75;2.28;;;;;;;12.04;25.14;100897.28;122028;1155;22634;-73
2021/04/25 11:08:29;;;;;;;6.50;2.20;;;;;;;11.91;25.28;100892.45;121653;1155;22548;-72
2021/04/25 11:11:09;;;;;;;6.85;1.93;;;;;;;11.68;25.71;100899.33;122224;1154;22539;-75
2021/04/25 11:13:46;;;;;;;4.68;2.00;;;;;;;11.61;26.38;100903.61;122073;1155;22593;-73
2021/04/25 11:16:14;;;;;;;6.10;2.98;;;;;;;11.63;26.53;100905.12;122182;1153;22595;-74
2021/04/25 11:18:53;;;;;;;9.63;2.90;;;;;;;11.52;26.31;100906.22;122199;1153;22548;-74
2021/04/25 11:21:30;;;;;;;3.43;2.30;;;;;;;11.37;26.79;100909.66;122152;1155;22587;-73
2021/04/25 11:24:02;;;;;;;9.28;2.25;;;;;;;11.36;27.12;100913.27;122151;1153;22557;-73
2021/04/25 11:26:42;;;;;;;2.50;1.60;;;;;;;11.43;27.07;100908.98;122341;1153;22534;-76
2021/04/25 11:29:16;;;;;;;7.88;2.20;;;;;;;11.44;26.81;100911.49;122217;1153;24981;-75
2021/04/25 11:31:51;;;;;;;6.28;1.68;;;;;;;11.43;27.00;100907.20;122163;1155;22533;-73
2021/04/25 11:34:23;;;;;;;3.43;1.33;;;;;;;11.38;26.99;100904.19;122178;1152;22540;-74
2021/04/25 11:37:03;;;;;;;3.57;1.30;;;;;;;11.37;27.15;100909.66;122208;1152;22547;-73
2021/04/25 11:39:45;;;;;;;3.98;1.73;;;;;;;11.38;27.21;100909.48;122126;1153;22535;-73
2021/04/25 11:42:33;;;;;;;2.48;1.68;;;;;;;11.48;27.79;100904.06;121723;1155;23493;-76
2021/04/25 11:45:12;;;;;;;4.30;1.20;;;;;;;11.61;27.73;100896.50;121497;1158;23338;-75
2021/04/25 11:47:47;;;;;;;5.10;1.60;;;;;;;11.71;27.54;100885.77;121217;1158;23771;-73
2021/04/25 11:50:18;;;;;;;3.70;2.10;;;;;;;11.83;27.69;100884.48;121316;1158;22565;-73
2021/04/25 11:52:47;;;;;;;2.07;1.30;;;;;;;11.97;27.67;100883.87;121280;1158;22619;-74
2021/04/25 11:55:18;;;;;;;1.83;1.23;;;;;;;12.03;27.13;100887.69;121215;1158;22579;-74
2021/04/25 11:57:50;;;;;;;5.58;1.85;;;;;;;12.08;27.04;100898.60;121674;1158;22668;-74
2021/04/25 12:00:32;;;;;;;5.33;1.63;;;;;;;12.00;26.57;100894.13;121501;1158;24820;-74
2021/04/25 12:03:05;;;;;;;4.40;1.60;;;;;;;11.88;26.66;100897.25;121700;1158;22583;-74
2021/04/25 12:05:39;;;;;;;6.78;2.23;;;;;;;11.76;26.94;100916.07;121414;1158;25391;-75
2021/04/25 12:08:14;;;;;;;4.18;1.70;;;;;;;11.58;26.93;100911.87;121773;1155;23563;-75
2021/04/25 12:10:50;;;;;;;5.83;2.40;;;;;;;11.27;27.38;100920.36;122137;1155;22725;-74
2021/04/25 12:13:21;;;;;;;6.90;2.20;;;;;;;10.98;28.27;100920.69;122221;1155;25166;-75
2021/04/25 12:16:00;;;;;;;12.33;2.65;;;;;;;10.75;28.79;100921.20;122219;1153;22563;-74
2021/04/25 12:18:40;;;;;;;7.27;2.30;;;;;;;10.51;29.69;100907.83;122108;1155;22557;-75
2021/04/25 12:21:16;;;;;;;5.05;2.83;;;;;;;10.41;30.35;100913.20;122116;1153;22608;-76
2021/04/25 12:23:53;;;;;;;4.85;1.80;;;;;;;10.41;30.64;100909.73;122311;1153;22547;-77
2021/04/25 12:26:25;;;;;;;3.53;1.50;;;;;;;10.51;31.15;100902.55;121822;1156;22578;-74
2021/04/25 12:28:56;;;;;;;5.15;2.13;;;;;;;10.55;30.65;100906.53;121692;1156;22656;-74
2021/04/25 12:31:28;;;;;;;6.00;2.20;;;;;;;10.53;30.28;100905.84;122052;1158;22891;-75
2021/04/25 12:34:01;;;;;;;3.38;1.58;;;;;;;10.50;30.54;100906.17;121685;1156;22563;-75
2021/04/25 12:36:30;;;;;;;4.07;2.30;;;;;;;10.53;30.01;100924.33;121592;1156;22807;-74
2021/04/25 12:39:04;;;;;;;5.93;2.23;;;;;;;10.52;30.50;100922.68;121816;1157;22628;-76
2021/04/25 12:41:41;;;;;;;3.73;2.00;;;;;;;10.55;31.17;100927.66;121664;1158;22640;-73
2021/04/25 12:44:13;;;;;;;6.33;2.70;;;;;;;10.53;30.97;100930.47;121705;1155;22571;-74
2021/04/25 12:47:03;;;;;;;6.95;2.28;;;;;;;10.45;31.29;100930.39;121650;1156;22606;-73
2021/04/25 12:49:36;;;;;;;4.70;2.23;;;;;;;10.40;31.41;100922.11;121694;1155;22554;-74
2021/04/25 12:52:06;;;;;;;3.90;2.28;;;;;;;10.44;31.75;100915.53;121637;1158;22557;-74
2021/04/25 12:54:44;;;;;;;2.78;1.73;;;;;;;10.50;31.63;100916.74;121610;1156;22656;-73
2021/04/25 12:57:14;;;;;;;2.38;1.55;;;;;;;10.46;31.34;100918.86;121709;1158;22953;-74
2021/04/25 12:59:42;;;;;;;4.63;2.25;;;;;;;10.38;31.39;100910.03;121867;1157;22561;-77
2021/04/25 13:02:17;;;;;;;3.78;1.93;;;;;;;10.38;31.31;100908.22;121708;1155;22558;-78
2021/04/25 13:04:49;;;;;;;4.03;2.70;;;;;;;10.39;31.03;100909.04;121686;1155;22552;-77
2021/04/25 13:07:35;;;;;;;4.83;1.78;;;;;;;10.36;31.15;100905.74;121821;1155;24750;-79
2021/04/25 13:10:15;;;;;;;6.60;2.13;;;;;;;10.43;31.19;100905.95;121669;1159;22988;-80
2021/04/25 13:12:52;;;;;;;3.70;2.28;;;;;;;10.51;31.38;100894.62;121732;1157;22558;-78
2021/04/25 13:15:30;;;;;;;4.17;2.27;;;;;;;10.65;31.23;100898.51;121786;1155;22541;-77
2021/04/25 13:18:13;;;;;;;2.58;1.28;;;;;;;10.79;30.59;100895.29;121776;1155;22625;-78
2021/04/25 13:20:46;;;;;;;2.70;1.05;;;;;;;10.82;30.11;100892.34;121814;1155;22578;-78
2021/04/25 13:23:29;;;;;;;2.90;1.25;;;;;;;10.76;29.52;100896.45;121665;1155;23342;-79
2021/04/25 13:26:07;;;;;;;3.45;1.30;;;;;;;10.64;29.66;100891.58;121704;1155;22652;-78
2021/04/25 13:28:35;;;;;;;3.90;1.25;;;;;;;10.58;29.55;100882.45;121961;1153;22558;-77
2021/04/25 13:31:10;;;;;;;2.13;1.48;;;;;;;10.61;29.21;100874.21;122163;1153;24702;-77
2021/04/25 13:33:40;;;;;;;2.30;1.23;;;;;;;10.73;29.15;100870.34;122124;1153;24699;-77
2021/04/25 13:36:09;;;;;;;6.40;1.20;;;;;;;10.90;28.80;100886.30;122138;1155;22568;-77
2021/04/25 13:38:37;;;;;;;2.63;1.18;;;;;;;11.05;28.18;100876.77;122110;1155;22556;-78
2021/04/25 13:41:06;;;;;;;4.33;1.68;;;;;;;11.17;27.86;100878.16;122194;1155;24790;-77
2021/04/25 13:43:34;;;;;;;2.68;1.20;;;;;;;11.23;27.49;100869.59;121730;1156;24702;-77
2021/04/25 13:46:03;;;;;;;5.58;1.80;;;;;;;11.24;27.43;100868.59;121687;1155;22553;-78
2021/04/25 13:48:32;;;;;;;1.95;1.28;;;;;;;11.30;27.49;100861.84;121572;1158;25192;-78
2021/04/25 13:51:00;;;;;;;3.50;2.35;;;;;;;11.44;27.42;100868.34;121339;1158;24893;-78
2021/04/25 13:53:29;;;;;;;4.58;2.88;;;;;;;11.51;27.16;100871.99;121516;1158;24725;-76
2021/04/25 13:55:58;;;;;;;4.03;1.45;;;;;;;11.49;27.16;100871.31;121256;1159;23355;-76
2021/04/25 13:58:27;;;;;;;3.80;1.75;;;;;;;11.43;26.31;100869.31;121285;1161;22669;-77
2021/04/25 14:01:00;;;;;;;5.30;2.23;;;;;;;11.40;26.86;100874.95;121287;1159;25215;-75
2021/04/25 14:03:28;;;;;;;6.05;2.25;;;;;;;11.31;26.32;100880.19;121566;1159;22570;-76
2021/04/25 14:05:57;;;;;;;3.20;2.03;;;;;;;11.25;26.55;100878.17;121562;1158;22632;-75
2021/04/25 14:08:25;;;;;;;2.78;1.63;;;;;;;11.17;26.45;100883.45;121588;1158;22578;-75
2021/04/25 14:10:53;;;;;;;3.13;1.90;;;;;;;11.07;26.13;100882.74;121719;1157;24715;-76
2021/04/25 14:13:22;;;;;;;4.28;2.38;;;;;;;10.84;26.27;100885.09;121699;1155;23037;-75
2021/04/25 14:15:50;;;;;;;3.00;2.20;;;;;;;10.72;26.48;100873.94;121824;1156;24470;-76
2021/04/25 14:18:19;;;;;;;5.70;2.00;;;;;;;10.68;27.07;100875.25;122080;1155;23143;-76
2021/04/25 14:20:48;;;;;;;4.13;2.25;;;;;;;10.63;26.84;100882.83;122159;1155;22558;-76
2021/04/25 14:23:17;;;;;;;11.55;4.58;;;;;;;10.58;27.48;100882.45;122154;1155;22567;-76
2021/04/25 14:25:47;;;;;;;16.98;4.15;;;;;;;10.52;27.55;100886.52;121656;1155;22615;-75
2021/04/25 14:28:16;;;;;;;8.10;2.60;;;;;;;10.48;28.22;100887.00;121706;1158;22546;-76
2021/04/25 14:30:44;;;;;;;5.35;2.35;;;;;;;10.47;28.79;100882.70;121621;1158;22639;-76
2021/04/25 14:33:14;;;;;;;5.90;3.33;;;;;;;10.47;29.03;100885.34;121627;1158;22880;-76
2021/04/25 14:36:06;;;;;;;6.63;3.80;;;;;;;10.38;28.82;100892.37;121683;1158;22705;-76
2021/04/25 14:38:34;;;;;;;5.65;3.33;;;;;;;10.30;29.11;100897.60;121719;1156;22556;-77
2021/04/25 14:41:04;;;;;;;3.13;2.03;;;;;;;10.33;29.50;100890.20;121753;1155;24696;-75
2021/04/25 14:43:33;;;;;;;4.33;1.60;;;;;;;10.35;29.30;100885.58;121896;1155;22552;-76
2021/04/25 14:46:06;;;;;;;2.13;1.40;;;;;;;10.31;29.64;100891.33;121843;1155;22991;-76
2021/04/25 14:48:36;;;;;;;3.33;1.63;;;;;;;10.19;29.48;100881.94;121939;1156;24924;-75
2021/04/25 14:51:06;;;;;;;2.15;1.40;;;;;;;10.15;30.03;100889.34;122028;1155;22543;-75
2021/04/25 14:53:40;;;;;;;5.20;1.20;;;;;;;10.18;29.74;100881.12;122244;1155;23316;-75
2021/04/25 14:56:09;;;;;;;3.25;1.45;;;;;;;10.20;29.15;100875.70;122266;1154;24313;-75
2021/04/25 14:58:37;;;;;;;5.33;2.33;;;;;;;10.16;29.84;100883.06;122300;1155;24380;-75
2021/04/25 15:01:06;;;;;;;6.45;2.03;;;;;;;10.13;29.63;100880.77;122067;1153;22585;-75
2021/04/25 15:03:35;;;;;;;9.85;8.55;;;;;;;10.06;29.33;100874.41;122098;1155;23315;-75